Flight Track Log - Related Links

Times and Time Zones

All times are in EDT time to prevent confusion due to time zone crossing. See the ASQ3813 flight status page for this flight to view local times or setup timezone preferences in your user account.

Time Position Orientation Groundspeed Altitude Reporting Facility
EDT Latitude Longitude Course Direction KTS MPH feet Rate Location/Type
Tue 09:21:42 PM 42.0333 -87.9833 346° North 196 226 3,000  Level Chicago TRACON
Tue 09:22:42 PM 42.0833 -88.0167 334° Northwest 254 292 4,400 1,188 Climbing Chicago TRACON
Tue 09:23:23 PM 42.1286 -88.0167 360° North 257 296 5,000 1,456 Climbing Chicago Center
Tue 09:24:00 PM 42.3554 -88.0193 340° North  Level FlightAware Approximate
Tue 09:24:25 PM 42.2033 -88.0097 North 269 310 6,900  Level Chicago Center
Tue 09:25:00 PM 42.4511 -88.0569 352° North  Level FlightAware Approximate
Tue 09:25:27 PM 42.2894 -88.0058 North 262 302 9,800  Level Chicago Center
Tue 09:26:00 PM 42.5458 -88.0930 346° North  Level FlightAware Approximate
Tue 09:26:29 PM 42.3569 -87.9983 North 252 290 11,100  Level Chicago Center
Tue 09:27:31 PM 42.4361 -88.0003 359° North 279 321 12,200 829 Climbing Chicago Center
Tue 09:28:32 PM 42.5167 -88.0397 340° North 304 350 12,800 683 Climbing Chicago Center
Tue 09:29:34 PM 42.6058 -88.0767 343° North 329 379 13,600 919 Climbing Chicago Center
Tue 09:30:36 PM 42.7097 -88.1256 341° North 339 390 14,700 1,210 Climbing Chicago Center
Tue 09:31:38 PM 42.7811 -88.2097 319° Northwest 335 386 16,100 1,694 Climbing Chicago Center
Tue 09:32:40 PM 42.8275 -88.3053 304° West 297 342 18,200 1,756 Climbing Chicago Center
Tue 09:33:41 PM 42.8783 -88.3850 311° West 278 320 19,700 1,366 Climbing Chicago Center
Tue 09:34:43 PM 42.9411 -88.4433 326° Northwest 271 312 21,000 927 Climbing Chicago Center
Tue 09:35:44 PM 43.0069 -88.5031 326° Northwest 280 322 21,600 634 Climbing Chicago Center
Tue 09:36:46 PM 43.0769 -88.5661 327° Northwest 296 341 22,300 871 Climbing Chicago Center
Tue 09:37:48 PM 43.1636 -88.6444 327° Northwest 316 364 23,400 1,210 Climbing Chicago Center
Tue 09:38:50 PM 43.2386 -88.7117 327° Northwest 319 367 24,800 1,268 Climbing Chicago Center
Tue 09:39:51 PM 43.3114 -88.7792 326° Northwest 313 360 26,000 976 Climbing Chicago Center
Tue 09:40:53 PM 43.3864 -88.8475 326° Northwest 319 367 26,800 829 Climbing Chicago Center
Tue 09:41:54 PM 43.4639 -88.9178 327° Northwest 329 379 27,700 780 Climbing Chicago Center
Tue 09:42:56 PM 43.5425 -88.9903 326° Northwest 335 386 28,400 780 Climbing Chicago Center
Tue 09:43:57 PM 43.6219 -89.0625 327° Northwest 339 390 29,300 829 Climbing Chicago Center
Tue 09:44:59 PM 43.7028 -89.1381 326° Northwest 348 400 30,100 780 Climbing Chicago Center
Tue 09:46:00 PM 43.7847 -89.2131 327° Northwest 354 407 30,900 878 Climbing Chicago Center
Tue 09:47:02 PM 43.8819 -89.3031 326° Northwest 360 414 31,900 1,016 Climbing Chicago Center
Tue 09:48:04 PM 43.9656 -89.3817 326° Northwest 361 415 33,000 1,122 Climbing Chicago Center
Tue 09:49:05 PM 44.0469 -89.4581 326° Northwest 354 407 34,200 1,171 Climbing Chicago Center
Tue 09:50:07 PM 44.1267 -89.5328 326° Northwest 346 398 35,400 1,116 Climbing Chicago Center
Tue 09:50:31 PM 44.1517 -89.5558 327° Northwest 342 394 35,800 424 Climbing Minneapolis Center
Tue 09:51:32 PM 44.2292 -89.6294 326° Northwest 338 389 36,000 98 Climbing Minneapolis Center
Tue 09:52:34 PM 44.3261 -89.7203 326° Northwest 358 412 36,000  Level Minneapolis Center
Tue 09:53:35 PM 44.4136 -89.8036 326° Northwest 377 434 36,000  Level Minneapolis Center
Tue 09:54:36 PM 44.5028 -89.8886 326° Northwest 387 445 36,000  Level Minneapolis Center
Tue 09:55:38 PM 44.5903 -89.9731 326° Northwest 383 441 36,000  Level Minneapolis Center
Tue 09:56:39 PM 44.6772 -90.0583 325° Northwest 382 440 36,000  Level Minneapolis Center
Tue 09:57:40 PM 44.7650 -90.1414 326° Northwest 381 438 36,000  Level Minneapolis Center
Tue 09:58:42 PM 44.8542 -90.2289 325° Northwest 377 434 36,000  Level Minneapolis Center
Tue 09:59:43 PM 44.9406 -90.3125 326° Northwest 376 433 36,000  Level Minneapolis Center
Tue 10:00:45 PM 45.0261 -90.3967 325° Northwest 375 432 36,000  Level Minneapolis Center
Tue 10:01:46 PM 45.1117 -90.4803 325° Northwest 374 430 36,000  Level Minneapolis Center
Tue 10:02:47 PM 45.1994 -90.5658 326° Northwest 380 437 36,000  Level Minneapolis Center
Tue 10:03:49 PM 45.2897 -90.6553 325° Northwest 389 448 36,000  Level Minneapolis Center
Tue 10:04:50 PM 45.3975 -90.7639 325° Northwest 393 452 36,000  Level Minneapolis Center
Tue 10:05:51 PM 45.4881 -90.8525 326° Northwest 393 452 36,000  Level Minneapolis Center
Tue 10:06:52 PM 45.5750 -90.9400 325° Northwest 386 444 36,000  Level Minneapolis Center
Tue 10:07:54 PM 45.6611 -91.0250 325° Northwest 379 436 36,000  Level Minneapolis Center
Tue 10:08:55 PM 45.7458 -91.1114 325° Northwest 375 432 36,000  Level Minneapolis Center
Tue 10:09:56 PM 45.8292 -91.1961 325° Northwest 368 423 36,000  Level Minneapolis Center
Tue 10:10:58 PM 45.9119 -91.2786 325° Northwest 365 420 36,000  Level Minneapolis Center
Tue 10:11:59 PM 45.9944 -91.3631 325° Northwest 363 418 36,000  Level Minneapolis Center
Tue 10:13:00 PM 46.0761 -91.4467 325° Northwest 361 415 36,000  Level Minneapolis Center
Tue 10:14:01 PM 46.1575 -91.5311 324° Northwest 361 415 36,000  Level Minneapolis Center
Tue 10:15:03 PM 46.2472 -91.6228 325° Northwest 367 422 36,000  Level Minneapolis Center
Tue 10:16:04 PM 46.3308 -91.7083 325° Northwest 369 425 36,000  Level Minneapolis Center
Tue 10:17:05 PM 46.4139 -91.7953 324° Northwest 369 425 36,000  Level Minneapolis Center
Tue 10:18:06 PM 46.4981 -91.8822 325° Northwest 372 428 36,000  Level Minneapolis Center
Tue 10:19:08 PM 46.5811 -91.9717 324° Northwest 373 429 36,000  Level Minneapolis Center
Tue 10:20:09 PM 46.6689 -92.0636 324° Northwest 381 438 36,000  Level Minneapolis Center
Tue 10:21:10 PM 46.7764 -92.1756 325° Northwest 390 449 36,000  Level Minneapolis Center
Tue 10:22:11 PM 46.8606 -92.2733 322° Northwest 390 449 36,000  Level Minneapolis Center
Tue 10:23:12 PM 46.9367 -92.3689 319° Northwest 370 426 36,000  Level Minneapolis Center
Tue 10:24:13 PM 47.0136 -92.4636 320° Northwest 363 418 36,000  Level Minneapolis Center
Tue 10:25:15 PM 47.0931 -92.5622 320° Northwest 371 427 36,000  Level Minneapolis Center
Tue 10:26:16 PM 47.1747 -92.6639 320° Northwest 381 438 36,000  Level Minneapolis Center
Tue 10:27:17 PM 47.2575 -92.7658 320° Northwest 388 447 36,000  Level Minneapolis Center
Tue 10:28:18 PM 47.3389 -92.8661 320° Northwest 387 445 36,000  Level Minneapolis Center
Tue 10:29:19 PM 47.4344 -92.9842 320° Northwest 383 441 36,000 -49 Level Minneapolis Center
Tue 10:30:20 PM 47.5122 -93.0833 319° Northwest 380 437 35,900  Descending Minneapolis Center
Tue 10:31:22 PM 47.5864 -93.1819 318° Northwest 370 426 36,000 49 Climbing Minneapolis Center
Tue 10:32:23 PM 47.6625 -93.2794 319° Northwest 367 422 36,000  Level Minneapolis Center
Tue 10:33:24 PM 47.7414 -93.3808 319° Northwest 376 433 36,000  Level Minneapolis Center
Tue 10:34:25 PM 47.8214 -93.4839 319° Northwest 383 441 36,000  Level Minneapolis Center
Tue 10:35:26 PM 47.9042 -93.5919 319° Northwest 392 451 36,000  Level Minneapolis Center
Tue 10:36:27 PM 47.9856 -93.6975 319° Northwest 392 451 36,000  Level Minneapolis Center
Tue 10:37:28 PM 48.0836 -93.8269 319° Northwest 392 451 36,000  Level Minneapolis Center
Tue 10:38:29 PM 48.1658 -93.9353 319° Northwest 394 453 36,000  Level Minneapolis Center
Tue 10:39:30 PM 48.2481 -94.0442 319° Northwest 395 455 36,000  Level Minneapolis Center
Tue 10:40:32 PM 48.3314 -94.1533 319° Northwest 396 456 36,000  Level Minneapolis Center
Tue 10:41:33 PM 48.4144 -94.2642 318° Northwest 398 458 36,000  Level Minneapolis Center
Tue 10:42:34 PM 48.4967 -94.3758 318° Northwest 399 459 36,000  Level Minneapolis Center
Tue 10:43:35 PM 48.5797 -94.4872 318° Northwest 400 460 36,000  Level Minneapolis Center
Tue 10:44:36 PM 48.6622 -94.5994 318° Northwest 400 460 36,000  Level Minneapolis Center
Tue 10:45:37 PM 48.7439 -94.7086 319° Northwest 397 457 36,000  Level Minneapolis Center
Tue 10:46:38 PM 48.8247 -94.8186 318° Northwest 395 455 36,000  Level Minneapolis Center
Tue 10:47:29 PM 48.8833 -94.9000 318° Northwest 390 449 36,000  Level Winnipeg Center
Tue 10:48:29 PM 48.9833 -95.0333 319° Northwest 390 449 36,000 -900 Level Winnipeg Center
Tue 10:49:29 PM 49.0500 -95.1333 316° Northwest 380 437 34,200 -2,000 Descending Winnipeg Center
Tue 10:50:29 PM 49.1333 -95.2333 322° Northwest 380 437 32,000 -2,200 Descending Winnipeg Center
Tue 10:51:29 PM 49.2167 -95.3500 318° Northwest 400 460 29,800 -2,050 Descending Winnipeg Center
Tue 10:52:29 PM 49.2833 -95.4500 316° Northwest 390 449 27,900 -2,050 Descending Winnipeg Center
Tue 10:53:29 PM 49.3667 -95.5833 314° West 410 472 25,700 -2,300 Descending Winnipeg Center
Tue 10:54:29 PM 49.4500 -95.7000 318° Northwest 400 460 23,300 -2,100 Descending Winnipeg Center
Tue 10:55:29 PM 49.5000 -95.8333 300° West 380 437 21,500 -2,100 Descending Winnipeg Center
Tue 10:56:29 PM 49.5167 -95.9833 280° West 370 426 19,100 -2,100 Descending Winnipeg Center
Tue 10:57:29 PM 49.5500 -96.1333 289° West 350 403 17,300 -1,750 Descending Winnipeg Center
Tue 10:58:29 PM 49.5833 -96.2667 291° West 350 403 15,600 -1,700 Descending Winnipeg Center
Tue 10:59:29 PM 49.6167 -96.4167 289° West 350 403 13,900 -1,700 Descending Winnipeg Center
Tue 11:00:29 PM 49.6333 -96.5500 281° West 340 391 12,200 -1,600 Descending Winnipeg Center
Tue 11:01:29 PM 49.6500 -96.6833 281° West 290 334 10,700 -1,550 Descending Winnipeg Center
Tue 11:02:29 PM 49.6667 -96.7833 284° West 260 299 9,100 -1,650 Descending Winnipeg Center
Tue 11:03:29 PM 49.6833 -96.8833 284° West 250 288 7,400 -1,700 Descending Winnipeg Center
Tue 11:04:29 PM 49.7000 -97.0000 282° West 240 276 5,700 -1,650 Descending Winnipeg Center
Tue 11:05:29 PM 49.7167 -97.1000 284° West 240 276 4,100 -1,600 Descending Winnipeg Center

Login

Don't have an account? Register now (free) for customized features, flight alerts, and more!